createdAt,value
2022-08-04T00:00:33.367Z,39.86
2022-08-04T00:01:27.151Z,39.85
2022-08-04T00:02:27.135Z,39.82
2022-08-04T00:03:33.418Z,39.82
2022-08-04T00:04:28.555Z,39.80
2022-08-04T00:05:28.088Z,39.77
2022-08-04T00:06:33.281Z,39.74
2022-08-04T00:07:44.595Z,39.71
2022-08-04T00:08:28.887Z,39.69
2022-08-04T00:09:28.007Z,39.66
2022-08-04T00:10:27.211Z,39.63
2022-08-04T00:11:35.206Z,39.62
2022-08-04T00:12:28.099Z,39.61
2022-08-04T00:13:28.383Z,39.63
2022-08-04T00:14:26.914Z,39.61
2022-08-04T00:15:27.911Z,39.61
2022-08-04T00:16:34.989Z,39.60
2022-08-04T00:17:27.165Z,39.59
2022-08-04T00:18:26.906Z,39.58
2022-08-04T00:19:27.161Z,39.56
2022-08-04T00:20:28.253Z,39.55
2022-08-04T00:21:26.805Z,39.55
2022-08-04T00:22:33.115Z,39.56
2022-08-04T00:23:26.822Z,39.54
2022-08-04T00:24:27.803Z,39.54
2022-08-04T00:25:27.748Z,39.55
2022-08-04T00:26:26.807Z,39.55
2022-08-04T00:27:27.883Z,39.54
2022-08-04T00:28:33.365Z,39.54
2022-08-04T00:29:27.428Z,39.57
2022-08-04T00:30:26.663Z,39.55
2022-08-04T00:31:53.766Z,39.56
2022-08-04T00:32:34.224Z,39.55
2022-08-04T00:33:34.629Z,39.56
2022-08-04T00:34:27.016Z,39.55
2022-08-04T00:35:26.883Z,39.55
2022-08-04T00:36:27.611Z,39.55
2022-08-04T00:37:26.633Z,39.56
2022-08-04T00:38:27.654Z,39.57
2022-08-04T00:39:34.223Z,39.58
2022-08-04T00:40:26.545Z,39.57
2022-08-04T00:41:27.516Z,39.59
2022-08-04T00:42:32.896Z,39.58
2022-08-04T00:43:26.618Z,39.57
2022-08-04T00:44:26.535Z,39.57
2022-08-04T00:45:35.751Z,39.56
2022-08-04T00:46:27.470Z,39.55
2022-08-04T00:47:26.865Z,39.55
2022-08-04T00:48:26.647Z,39.55
2022-08-04T00:49:26.568Z,39.55
2022-08-04T00:50:26.703Z,39.53
2022-08-04T00:51:32.831Z,39.54
2022-08-04T00:52:32.892Z,39.53
2022-08-04T00:53:28.009Z,39.54
2022-08-04T00:54:26.416Z,39.54
2022-08-04T00:55:27.425Z,39.54
2022-08-04T00:56:26.406Z,39.52
2022-08-04T00:57:34.506Z,39.52
2022-08-04T00:58:26.687Z,39.51
2022-08-04T00:59:26.396Z,39.52
2022-08-04T01:00:26.362Z,39.51
2022-08-04T01:01:26.473Z,39.49
2022-08-04T01:02:27.314Z,39.47
2022-08-04T01:03:37.102Z,39.48
2022-08-04T01:04:26.525Z,39.45
2022-08-04T01:05:26.557Z,39.47
2022-08-04T01:06:32.827Z,39.45
2022-08-04T01:07:28.799Z,39.43
2022-08-04T01:08:26.304Z,39.41
2022-08-04T01:09:32.566Z,39.39
2022-08-04T01:10:48.582Z,39.38
2022-08-04T01:11:26.725Z,39.36
2022-08-04T01:12:26.243Z,39.36
2022-08-04T01:13:26.424Z,39.36
2022-08-04T01:14:32.540Z,39.37
2022-08-04T01:15:26.194Z,39.35
2022-08-04T01:16:26.737Z,39.37
2022-08-04T01:17:27.095Z,39.37
2022-08-04T01:18:27.147Z,39.37
2022-08-04T01:19:27.250Z,39.39
2022-08-04T01:20:32.453Z,39.38
2022-08-04T01:21:26.027Z,39.38
2022-08-04T01:22:26.033Z,39.37
2022-08-04T01:23:26.124Z,39.38
2022-08-04T01:24:26.558Z,39.39
2022-08-04T01:25:32.595Z,39.39
2022-08-04T01:26:42.246Z,39.38
2022-08-04T01:27:28.536Z,39.38
2022-08-04T01:28:26.288Z,39.40
2022-08-04T01:29:29.285Z,39.43
2022-08-04T01:30:29.244Z,39.46
2022-08-04T01:31:33.547Z,39.49
2022-08-04T01:32:26.514Z,39.51
2022-08-04T01:33:25.889Z,39.53
2022-08-04T01:34:25.996Z,39.57
2022-08-04T01:35:46.869Z,39.59
2022-08-04T01:36:27.408Z,39.60
2022-08-04T01:37:32.429Z,39.63
2022-08-04T01:38:26.889Z,39.64
2022-08-04T01:39:27.061Z,39.64
2022-08-04T01:40:32.202Z,39.64
2022-08-04T01:41:32.718Z,39.63
2022-08-04T01:42:33.660Z,39.59
2022-08-04T01:43:36.593Z,39.58
2022-08-04T01:44:26.033Z,39.59
2022-08-04T01:45:27.027Z,39.59
2022-08-04T01:46:25.803Z,39.58
2022-08-04T01:47:25.994Z,39.59
2022-08-04T01:48:26.663Z,39.61
2022-08-04T01:49:40.669Z,39.62
2022-08-04T01:50:27.219Z,39.61
2022-08-04T01:51:25.675Z,39.62
2022-08-04T01:52:26.588Z,39.63
2022-08-04T01:53:26.591Z,39.63
2022-08-04T01:54:25.729Z,39.63
2022-08-04T01:55:54.362Z,39.63
2022-08-04T01:56:27.120Z,39.61
2022-08-04T01:57:37.809Z,39.61
2022-08-04T01:58:28.059Z,39.62
2022-08-04T01:59:25.885Z,39.62
2022-08-04T02:00:31.935Z,39.65
2022-08-04T02:01:47.563Z,39.64
2022-08-04T02:02:25.705Z,39.62
2022-08-04T02:04:21.405Z,39.64
2022-08-04T02:04:26.564Z,39.65
2022-08-04T02:06:04.046Z,39.65
2022-08-04T02:06:26.481Z,39.68
2022-08-04T02:07:31.791Z,39.68
2022-08-04T02:08:25.823Z,39.71
2022-08-04T02:09:26.412Z,39.72
2022-08-04T02:10:31.789Z,39.73
2022-08-04T02:11:25.463Z,39.74
2022-08-04T02:12:25.433Z,39.76
2022-08-04T02:13:25.639Z,39.75
2022-08-04T02:14:25.424Z,39.75
2022-08-04T02:15:25.604Z,39.77
2022-08-04T02:16:31.639Z,39.77
2022-08-04T02:17:25.357Z,39.77
2022-08-04T02:18:25.283Z,39.79
2022-08-04T02:19:25.636Z,39.79
2022-08-04T02:20:25.265Z,39.80
2022-08-04T02:21:42.015Z,39.80
2022-08-04T02:22:26.800Z,39.82
2022-08-04T02:23:25.459Z,39.81
2022-08-04T02:24:26.384Z,39.82
2022-08-04T02:25:25.294Z,39.83
2022-08-04T02:26:25.454Z,39.85
2022-08-04T02:27:59.203Z,39.87
2022-08-04T02:28:27.584Z,39.89
2022-08-04T02:29:27.309Z,39.89
2022-08-04T02:30:28.038Z,39.91
2022-08-04T02:31:26.128Z,39.91
2022-08-04T02:32:31.495Z,39.91
2022-08-04T02:33:25.179Z,39.92
2022-08-04T02:34:25.233Z,39.94
2022-08-04T02:35:27.258Z,39.93
2022-08-04T02:36:25.094Z,39.93
2022-08-04T02:37:32.466Z,39.92
2022-08-04T02:38:25.812Z,39.88
2022-08-04T02:39:25.162Z,39.87
2022-08-04T02:40:25.032Z,39.85
2022-08-04T02:41:26.072Z,39.82
2022-08-04T02:42:26.187Z,39.80
2022-08-04T02:43:51.435Z,39.79
2022-08-04T02:44:26.466Z,39.78
2022-08-04T02:45:24.955Z,39.77
2022-08-04T02:46:26.053Z,39.79
2022-08-04T02:48:28.891Z,39.80
2022-08-04T02:48:30.088Z,39.84
2022-08-04T02:49:33.670Z,39.85
2022-08-04T02:50:29.084Z,39.86
2022-08-04T02:51:24.817Z,39.85
2022-08-04T02:52:24.798Z,39.85
2022-08-04T02:53:24.871Z,39.85
2022-08-04T02:54:32.634Z,39.85
2022-08-04T02:55:24.747Z,39.83
2022-08-04T02:56:24.808Z,39.83
2022-08-04T02:57:24.729Z,39.84
2022-08-04T02:58:24.756Z,39.85
2022-08-04T02:59:24.760Z,39.85
2022-08-04T03:00:31.416Z,39.85
2022-08-04T03:01:24.870Z,39.86
2022-08-04T03:02:24.666Z,39.88
2022-08-04T03:03:24.698Z,39.87
2022-08-04T03:04:25.451Z,39.88
2022-08-04T03:05:30.909Z,39.89
2022-08-04T03:06:26.167Z,39.91
2022-08-04T03:07:24.605Z,39.91
2022-08-04T03:08:25.032Z,39.91
2022-08-04T03:09:24.693Z,39.93
2022-08-04T03:10:24.937Z,39.94
2022-08-04T03:11:30.876Z,39.93
2022-08-04T03:12:24.540Z,39.94
2022-08-04T03:13:24.639Z,39.95
2022-08-04T03:14:24.536Z,39.95
2022-08-04T03:15:24.566Z,39.96
2022-08-04T03:16:24.535Z,39.97
2022-08-04T03:17:32.815Z,39.98
2022-08-04T03:18:24.484Z,39.96
2022-08-04T03:19:24.492Z,39.93
2022-08-04T03:20:24.472Z,39.91
2022-08-04T03:21:24.499Z,39.88
2022-08-04T03:22:31.043Z,39.87
2022-08-04T03:23:24.432Z,39.84
2022-08-04T03:24:24.389Z,39.83
2022-08-04T03:25:24.380Z,39.83
2022-08-04T03:26:24.340Z,39.83
2022-08-04T03:27:24.337Z,39.83
2022-08-04T03:28:31.626Z,39.83
2022-08-04T03:29:36.023Z,39.84
2022-08-04T03:30:25.800Z,39.83
2022-08-04T03:31:24.312Z,39.84
2022-08-04T03:32:24.305Z,39.84
2022-08-04T03:33:24.301Z,39.84
2022-08-04T03:34:30.607Z,39.85
2022-08-04T03:35:24.275Z,39.84
2022-08-04T03:36:27.289Z,39.85
2022-08-04T03:37:25.722Z,39.86
2022-08-04T03:38:24.272Z,39.86
2022-08-04T03:39:30.543Z,39.84
2022-08-04T03:40:24.190Z,39.83
2022-08-04T03:41:59.810Z,39.84
2022-08-04T03:42:25.300Z,39.82
2022-08-04T03:43:57.652Z,39.83
2022-08-04T03:44:31.408Z,39.81
2022-08-04T03:45:24.515Z,39.79
2022-08-04T03:46:24.105Z,39.79
2022-08-04T03:47:24.084Z,39.78
2022-08-04T03:48:24.085Z,39.77
2022-08-04T03:49:30.341Z,39.76
2022-08-04T03:50:24.046Z,39.74
2022-08-04T03:51:34.119Z,39.72
2022-08-04T03:52:25.552Z,39.69
2022-08-04T03:53:24.047Z,39.67
2022-08-04T03:54:24.011Z,39.65
2022-08-04T03:55:30.356Z,39.63
2022-08-04T03:56:23.965Z,39.61
2022-08-04T03:57:24.126Z,39.60
2022-08-04T03:58:30.664Z,39.59
2022-08-04T03:59:25.472Z,39.56
2022-08-04T04:00:23.923Z,39.54
2022-08-04T04:01:30.509Z,39.53
2022-08-04T04:02:24.960Z,39.52
2022-08-04T04:03:28.400Z,39.49
2022-08-04T04:04:25.412Z,39.49
2022-08-04T04:05:24.369Z,39.47
2022-08-04T04:06:24.756Z,39.46
2022-08-04T04:07:36.266Z,39.44
2022-08-04T04:08:25.680Z,39.43
2022-08-04T04:09:28.770Z,39.41
2022-08-04T04:10:26.838Z,39.37
2022-08-04T04:11:23.789Z,39.35
2022-08-04T04:12:23.815Z,39.33
2022-08-04T04:13:30.333Z,39.29
2022-08-04T04:14:23.773Z,39.27
2022-08-04T04:15:23.766Z,39.25
2022-08-04T04:16:23.732Z,39.22
2022-08-04T04:17:24.087Z,39.18
2022-08-04T04:18:23.695Z,39.17
2022-08-04T04:19:30.057Z,39.15
2022-08-04T04:20:23.725Z,39.12
2022-08-04T04:21:23.679Z,39.09
2022-08-04T04:22:23.657Z,39.06
2022-08-04T04:23:23.635Z,39.05
2022-08-04T04:24:23.635Z,39.03
2022-08-04T04:25:31.434Z,39.00
2022-08-04T04:26:23.647Z,38.96
2022-08-04T04:27:23.806Z,38.95
2022-08-04T04:28:45.103Z,38.93
2022-08-04T04:29:24.640Z,38.90
2022-08-04T04:30:23.564Z,38.90
2022-08-04T04:31:29.877Z,38.89
2022-08-04T04:32:24.797Z,38.87
2022-08-04T04:33:23.842Z,38.85
2022-08-04T04:34:23.534Z,38.82
2022-08-04T04:35:23.479Z,38.81
2022-08-04T04:36:23.465Z,38.78
2022-08-04T04:37:29.771Z,38.76
2022-08-04T04:38:23.435Z,38.75
2022-08-04T04:39:23.541Z,38.71
2022-08-04T04:40:23.429Z,38.71
2022-08-04T04:41:23.407Z,38.70
2022-08-04T04:42:23.395Z,38.68
2022-08-04T04:43:52.301Z,38.67
2022-08-04T04:44:30.192Z,38.63
2022-08-04T04:45:24.886Z,38.62
2022-08-04T04:46:24.169Z,38.58
2022-08-04T04:48:07.650Z,38.56
2022-08-04T04:48:31.057Z,38.55
2022-08-04T04:49:23.339Z,38.53
2022-08-04T04:50:23.328Z,38.51
2022-08-04T04:51:25.999Z,38.50
2022-08-04T04:52:23.538Z,38.49
2022-08-04T04:53:23.293Z,38.47
2022-08-04T04:54:32.451Z,38.46
2022-08-04T04:55:23.401Z,38.43
2022-08-04T04:56:23.238Z,38.42
2022-08-04T04:57:53.168Z,38.40
2022-08-04T04:58:24.289Z,38.41
2022-08-04T04:59:30.911Z,38.38
2022-08-04T05:00:23.374Z,38.37
2022-08-04T05:01:23.337Z,38.37
2022-08-04T05:02:23.186Z,38.35
2022-08-04T05:03:23.526Z,38.33
2022-08-04T05:04:29.504Z,38.31
2022-08-04T05:05:23.103Z,38.29
2022-08-04T05:06:25.565Z,38.29
2022-08-04T05:07:24.394Z,38.26
2022-08-04T05:08:43.492Z,38.26
2022-08-04T05:09:31.077Z,38.23
2022-08-04T05:10:23.193Z,38.22
2022-08-04T05:11:23.045Z,38.19
2022-08-04T05:14:30.018Z,38.18
2022-08-04T05:14:35.130Z,38.15
2022-08-04T05:14:38.495Z,38.13
2022-08-04T05:15:32.081Z,38.12
2022-08-04T05:16:22.984Z,38.09
2022-08-04T05:17:23.303Z,38.08
2022-08-04T05:18:23.196Z,38.05
2022-08-04T05:19:24.421Z,38.04
2022-08-04T05:20:30.124Z,38.03
2022-08-04T05:21:22.893Z,38.03
2022-08-04T05:22:23.892Z,38.01
2022-08-04T05:23:22.879Z,37.99
2022-08-04T05:24:22.864Z,37.97
2022-08-04T05:25:29.274Z,37.95
2022-08-04T05:26:22.815Z,37.95
2022-08-04T05:27:26.830Z,37.94
2022-08-04T05:28:22.814Z,37.94
2022-08-04T05:29:22.824Z,37.91
2022-08-04T05:30:30.670Z,37.90
2022-08-04T05:31:22.776Z,37.89
2022-08-04T05:32:22.773Z,37.90
2022-08-04T05:33:26.054Z,37.86
2022-08-04T05:34:24.226Z,37.84
2022-08-04T05:35:52.132Z,37.83
2022-08-04T05:36:41.128Z,37.82
2022-08-04T05:37:24.560Z,37.81
2022-08-04T05:38:24.515Z,37.80
2022-08-04T05:39:22.709Z,37.77
2022-08-04T05:40:22.716Z,37.77
2022-08-04T05:41:32.449Z,37.76
2022-08-04T05:42:24.142Z,37.71
2022-08-04T05:43:22.621Z,37.71
2022-08-04T05:44:22.618Z,37.68
2022-08-04T05:45:22.643Z,37.69
2022-08-04T05:46:22.566Z,37.68
2022-08-04T05:47:28.916Z,37.67
2022-08-04T05:48:22.583Z,37.66
2022-08-04T05:49:22.558Z,37.65
2022-08-04T05:50:22.534Z,37.64
2022-08-04T05:51:22.492Z,37.63
2022-08-04T05:52:22.516Z,37.59
2022-08-04T05:53:28.867Z,37.60
2022-08-04T05:54:22.501Z,37.58
2022-08-04T05:55:48.865Z,37.56
2022-08-04T05:56:23.440Z,37.53
2022-08-04T05:57:22.936Z,37.53
2022-08-04T05:58:28.717Z,37.49
2022-08-04T05:59:22.409Z,37.49
2022-08-04T06:00:40.118Z,37.48
2022-08-04T06:01:23.920Z,37.46
2022-08-04T06:02:22.501Z,37.43
2022-08-04T06:03:22.466Z,37.43
2022-08-04T06:04:28.897Z,37.41
2022-08-04T06:05:22.492Z,37.40
2022-08-04T06:06:22.303Z,37.38
2022-08-04T06:07:22.583Z,37.36
2022-08-04T06:08:22.262Z,37.35
2022-08-04T06:09:29.071Z,37.32
2022-08-04T06:10:29.237Z,37.30
2022-08-04T06:11:23.773Z,37.29
2022-08-04T06:12:22.222Z,37.28
2022-08-04T06:13:48.701Z,37.28
2022-08-04T06:14:23.216Z,37.25
2022-08-04T06:15:28.549Z,37.25
2022-08-04T06:16:30.080Z,37.24
2022-08-04T06:18:33.024Z,37.22
2022-08-04T06:19:56.723Z,37.20
2022-08-04T06:20:00.958Z,37.18
2022-08-04T06:20:24.824Z,37.16
2022-08-04T06:21:29.393Z,37.16
2022-08-04T06:22:22.131Z,37.14
2022-08-04T06:23:22.569Z,37.14
2022-08-04T06:24:22.185Z,37.14
2022-08-04T06:25:22.138Z,37.12
2022-08-04T06:26:28.392Z,37.12
2022-08-04T06:27:22.307Z,37.10
2022-08-04T06:28:22.077Z,37.08
2022-08-04T06:29:22.214Z,37.08
2022-08-04T06:30:22.097Z,37.06
2022-08-04T06:32:27.745Z,37.02
2022-08-04T06:32:31.425Z,37.03
2022-08-04T06:33:23.560Z,37.00
2022-08-04T06:34:22.011Z,36.98
2022-08-04T06:35:21.991Z,36.96
2022-08-04T06:36:21.964Z,36.96
2022-08-04T06:37:42.779Z,36.92
2022-08-04T06:38:23.455Z,36.93
2022-08-04T06:39:21.984Z,36.90
2022-08-04T06:40:30.417Z,36.86
2022-08-04T06:41:23.410Z,36.85
2022-08-04T06:42:28.164Z,36.85
2022-08-04T06:43:21.896Z,36.85
2022-08-04T06:44:26.008Z,36.83
2022-08-04T06:45:21.880Z,36.83
2022-08-04T06:46:21.837Z,36.80
2022-08-04T06:47:29.062Z,36.79
2022-08-04T06:48:21.836Z,36.77
2022-08-04T06:49:23.266Z,36.75
2022-08-04T06:51:28.203Z,36.73
2022-08-04T06:51:34.546Z,36.74
2022-08-04T06:52:29.521Z,36.73
2022-08-04T06:53:21.745Z,36.70
2022-08-04T06:54:21.878Z,36.70
2022-08-04T06:55:21.721Z,36.70
2022-08-04T06:56:21.751Z,36.69
2022-08-04T06:57:28.113Z,36.68
2022-08-04T06:58:21.775Z,36.68
2022-08-04T06:59:21.622Z,36.66
2022-08-04T07:00:21.591Z,36.66
2022-08-04T07:01:21.707Z,36.65
2022-08-04T07:02:21.656Z,36.63
2022-08-04T07:03:27.869Z,36.62
2022-08-04T07:04:21.740Z,36.61
2022-08-04T07:05:21.632Z,36.60
2022-08-04T07:06:21.580Z,36.56
2022-08-04T07:07:21.731Z,36.54
2022-08-04T07:08:23.190Z,36.52
2022-08-04T07:09:28.017Z,36.50
2022-08-04T07:10:22.264Z,36.48
2022-08-04T07:11:21.586Z,36.47
2022-08-04T07:12:21.595Z,36.44
2022-08-04T07:13:23.835Z,36.44
2022-08-04T07:14:28.093Z,36.41
2022-08-04T07:15:21.553Z,36.40
2022-08-04T07:16:21.460Z,36.38
2022-08-04T07:17:23.067Z,36.37
2022-08-04T07:18:22.928Z,36.35
2022-08-04T07:19:29.017Z,36.32
2022-08-04T07:20:35.067Z,36.32
2022-08-04T07:21:23.027Z,36.29
2022-08-04T07:22:25.637Z,36.28
2022-08-04T07:23:21.359Z,36.27
2022-08-04T07:24:21.353Z,36.26
2022-08-04T07:25:28.895Z,36.25
2022-08-04T07:26:22.747Z,36.24
2022-08-04T07:27:48.118Z,36.23
2022-08-04T07:28:22.264Z,36.23
2022-08-04T07:29:21.255Z,36.23
2022-08-04T07:30:24.797Z,36.22
2022-08-04T07:31:33.452Z,36.19
2022-08-04T07:32:22.743Z,36.18
2022-08-04T07:33:21.191Z,36.17
2022-08-04T07:34:22.326Z,36.17
2022-08-04T07:36:05.353Z,36.16
2022-08-04T07:36:22.219Z,36.15
2022-08-04T07:37:39.081Z,36.14
2022-08-04T07:38:27.895Z,36.12
2022-08-04T07:39:27.469Z,36.13
2022-08-04T07:40:22.626Z,36.12
2022-08-04T07:41:37.068Z,36.13
2022-08-04T07:42:22.578Z,36.12
2022-08-04T07:43:27.377Z,36.10
2022-08-04T07:44:21.131Z,36.10
2022-08-04T07:45:21.079Z,36.08
2022-08-04T07:46:21.158Z,36.09
2022-08-04T07:47:24.945Z,36.07
2022-08-04T07:48:27.371Z,36.06
2022-08-04T07:49:56.787Z,36.05
2022-08-04T07:50:25.926Z,36.05
2022-08-04T07:51:21.006Z,36.03
2022-08-04T07:52:20.981Z,36.01
2022-08-04T07:53:54.318Z,36.01
2022-08-04T07:54:22.009Z,35.98
2022-08-04T07:55:20.983Z,35.98
2022-08-04T07:56:21.272Z,35.98
2022-08-04T07:57:39.943Z,35.97
2022-08-04T07:58:30.270Z,35.97
2022-08-04T07:59:20.882Z,35.94
2022-08-04T08:00:20.867Z,35.95
2022-08-04T08:01:20.894Z,35.93
2022-08-04T08:02:20.905Z,35.93
2022-08-04T08:03:31.279Z,35.93
2022-08-04T08:04:21.001Z,35.92
2022-08-04T08:05:20.907Z,35.92
2022-08-04T08:06:32.846Z,35.90
2022-08-04T08:07:22.476Z,35.89
2022-08-04T08:08:27.059Z,35.88
2022-08-04T08:09:20.810Z,35.88
2022-08-04T08:10:20.799Z,35.87
2022-08-04T08:11:24.676Z,35.88
2022-08-04T08:12:35.764Z,35.87
2022-08-04T08:13:31.533Z,35.86
2022-08-04T08:14:22.296Z,35.85
2022-08-04T08:15:20.766Z,35.85
2022-08-04T08:16:20.735Z,35.82
2022-08-04T08:17:22.457Z,35.81
2022-08-04T08:18:20.631Z,35.80
2022-08-04T08:19:27.008Z,35.80
2022-08-04T08:20:29.951Z,35.78
2022-08-04T08:21:22.165Z,35.78
2022-08-04T08:22:27.029Z,35.77
2022-08-04T08:23:21.790Z,35.75
2022-08-04T08:24:26.969Z,35.75
2022-08-04T08:25:20.530Z,35.75
2022-08-04T08:26:20.641Z,35.76
2022-08-04T08:27:20.939Z,35.74
2022-08-04T08:28:21.644Z,35.74
2022-08-04T08:29:27.108Z,35.75
2022-08-04T08:30:32.971Z,35.73
2022-08-04T08:31:20.525Z,35.72
2022-08-04T08:32:21.497Z,35.71
2022-08-04T08:33:21.362Z,35.71
2022-08-04T08:34:28.014Z,35.69
2022-08-04T08:35:20.524Z,35.69
2022-08-04T08:36:20.845Z,35.68
2022-08-04T08:37:21.536Z,35.67
2022-08-04T08:38:20.880Z,35.68
2022-08-04T08:39:26.822Z,35.66
2022-08-04T08:40:20.859Z,35.65
2022-08-04T08:41:21.877Z,35.66
2022-08-04T08:42:21.823Z,35.64
2022-08-04T08:44:03.867Z,35.65
2022-08-04T08:44:29.967Z,35.64
2022-08-04T08:45:22.101Z,35.62
2022-08-04T08:46:38.883Z,35.61
2022-08-04T08:47:21.501Z,35.60
2022-08-04T08:48:20.316Z,35.59
2022-08-04T08:50:02.462Z,35.58
2022-08-04T08:50:35.327Z,35.58
2022-08-04T08:51:21.280Z,35.55
2022-08-04T08:52:57.704Z,35.54
2022-08-04T08:53:21.232Z,35.55
2022-08-04T08:54:20.241Z,35.53
2022-08-04T08:55:26.507Z,35.52
2022-08-04T08:56:20.232Z,35.51
2022-08-04T08:57:21.880Z,35.50
2022-08-04T08:58:20.106Z,35.48
2022-08-04T08:59:20.177Z,35.47
2022-08-04T09:00:20.287Z,35.46
2022-08-04T09:01:30.304Z,35.45
2022-08-04T09:02:20.190Z,35.46
2022-08-04T09:03:20.133Z,35.44
2022-08-04T09:04:23.560Z,35.46
2022-08-04T09:05:20.101Z,35.45
2022-08-04T09:06:20.449Z,35.45
2022-08-04T09:07:26.435Z,35.45
2022-08-04T09:08:19.973Z,35.45
2022-08-04T09:09:20.006Z,35.45
2022-08-04T09:10:19.994Z,35.44
2022-08-04T09:11:21.058Z,35.44
2022-08-04T09:12:26.655Z,35.44
2022-08-04T09:13:26.730Z,35.46
2022-08-04T09:14:20.513Z,35.43
2022-08-04T09:15:19.955Z,35.43
2022-08-04T09:16:20.228Z,35.38
2022-08-04T09:17:20.207Z,35.38
2022-08-04T09:18:26.196Z,35.35
2022-08-04T09:19:37.905Z,35.34
2022-08-04T09:20:21.349Z,35.33
2022-08-04T09:21:20.952Z,35.33
2022-08-04T09:22:19.827Z,35.34
2022-08-04T09:23:19.837Z,35.34
2022-08-04T09:24:36.491Z,35.32
2022-08-04T09:25:21.731Z,35.33
2022-08-04T09:26:20.189Z,35.33
2022-08-04T09:27:20.098Z,35.31
2022-08-04T09:28:37.233Z,35.31
2022-08-04T09:29:20.850Z,35.24
2022-08-04T09:30:20.042Z,35.24
2022-08-04T09:31:19.925Z,35.23
2022-08-04T09:32:19.818Z,35.23
2022-08-04T09:33:20.211Z,35.22
2022-08-04T09:34:29.877Z,35.21
2022-08-04T09:35:23.840Z,35.19
2022-08-04T09:36:26.068Z,35.19
2022-08-04T09:37:21.329Z,35.21
2022-08-04T09:38:19.654Z,35.20
2022-08-04T09:39:19.763Z,35.17
2022-08-04T09:40:29.272Z,35.15
2022-08-04T09:41:48.638Z,35.14
2022-08-04T09:42:23.932Z,35.12
2022-08-04T09:43:21.182Z,35.07
2022-08-04T09:44:52.215Z,35.06
2022-08-04T09:45:26.767Z,35.05
2022-08-04T09:46:27.351Z,35.01
2022-08-04T09:47:20.339Z,34.99
2022-08-04T09:48:19.519Z,34.96
2022-08-04T09:49:19.515Z,34.97
2022-08-04T09:50:19.522Z,34.95
2022-08-04T09:51:25.862Z,34.94
2022-08-04T09:52:21.611Z,34.91
2022-08-04T09:53:19.428Z,34.89
2022-08-04T09:54:30.186Z,34.86
2022-08-04T09:55:20.931Z,34.86
2022-08-04T09:56:26.704Z,34.84
2022-08-04T09:57:19.945Z,34.83
2022-08-04T09:58:20.271Z,34.82
2022-08-04T09:59:19.364Z,34.83
2022-08-04T10:00:19.332Z,34.83
2022-08-04T10:01:23.086Z,34.84
2022-08-04T10:02:19.570Z,34.85
2022-08-04T10:03:20.474Z,34.85
2022-08-04T10:04:19.295Z,34.84
2022-08-04T10:05:19.303Z,34.82
2022-08-04T10:06:19.435Z,34.82
2022-08-04T10:07:19.560Z,34.80
2022-08-04T10:08:25.624Z,34.80
2022-08-04T10:09:19.507Z,34.81
2022-08-04T10:10:19.256Z,34.80
2022-08-04T10:11:19.290Z,34.78
2022-08-04T10:12:19.954Z,34.78
2022-08-04T10:13:25.558Z,34.77
2022-08-04T10:14:23.045Z,34.77
2022-08-04T10:15:20.187Z,34.76
2022-08-04T10:16:19.595Z,34.77
2022-08-04T10:17:23.462Z,34.79
2022-08-04T10:18:26.054Z,34.81
2022-08-04T10:19:19.366Z,34.81
2022-08-04T10:20:34.006Z,34.81
2022-08-04T10:21:23.968Z,34.83
2022-08-04T10:22:28.496Z,34.83
2022-08-04T10:23:21.173Z,34.84
2022-08-04T10:24:26.480Z,34.84
2022-08-04T10:26:03.182Z,34.84
2022-08-04T10:26:21.094Z,34.84
2022-08-04T10:27:19.182Z,34.83
2022-08-04T10:28:19.056Z,34.82
2022-08-04T10:29:25.278Z,34.82
2022-08-04T10:30:19.047Z,34.80
2022-08-04T10:31:19.568Z,34.81
2022-08-04T10:32:19.005Z,34.83
2022-08-04T10:33:18.921Z,34.82
2022-08-04T10:34:19.102Z,34.82
2022-08-04T10:35:25.527Z,34.81
2022-08-04T10:36:18.920Z,34.81
2022-08-04T10:37:18.995Z,34.82
2022-08-04T10:38:19.670Z,34.81
2022-08-04T10:39:42.759Z,34.81
2022-08-04T11:40:08.480Z,34.34
2022-08-04T11:41:08.149Z,35.08
2022-08-04T11:42:08.182Z,35.13
2022-08-04T11:43:12.271Z,35.09
2022-08-04T11:44:12.546Z,35.03
2022-08-04T11:45:08.101Z,34.89
2022-08-04T11:46:15.403Z,34.73
2022-08-04T11:47:08.126Z,34.54
2022-08-04T11:48:08.120Z,34.36
2022-08-04T11:49:08.053Z,34.17
2022-08-04T11:50:08.029Z,33.96
2022-08-04T11:51:14.358Z,33.82
2022-08-04T11:52:08.139Z,33.69
2022-08-04T11:53:08.026Z,33.54
2022-08-04T11:54:08.027Z,33.43
2022-08-04T11:55:07.976Z,33.32
2022-08-04T11:56:36.431Z,33.22
2022-08-04T11:57:09.506Z,33.15
2022-08-04T11:58:11.919Z,33.08
2022-08-04T11:59:07.925Z,33.02
2022-08-04T12:00:08.003Z,32.96
2022-08-04T12:01:14.368Z,32.90
2022-08-04T12:02:09.643Z,32.82
2022-08-04T12:03:07.972Z,32.74
2022-08-04T12:04:08.221Z,32.70
2022-08-04T12:05:08.856Z,32.67
2022-08-04T12:06:14.320Z,32.65
2022-08-04T12:08:08.781Z,32.63
2022-08-04T12:09:14.176Z,32.65
2022-08-04T12:10:07.851Z,32.68
2022-08-04T12:11:14.036Z,32.71
2022-08-04T12:12:11.774Z,32.73
2022-08-04T12:13:07.784Z,32.77
2022-08-04T12:14:07.777Z,32.81
2022-08-04T12:15:07.760Z,32.86
2022-08-04T12:16:15.260Z,32.90
2022-08-04T12:17:07.747Z,32.93
2022-08-04T12:18:07.788Z,32.98
2022-08-04T12:19:07.660Z,33.02
2022-08-04T12:20:38.094Z,33.06
2022-08-04T12:21:15.129Z,33.08
2022-08-04T12:22:07.736Z,33.11
2022-08-04T12:23:07.646Z,33.12
2022-08-04T12:24:07.628Z,33.16
2022-08-04T12:25:07.623Z,33.20
2022-08-04T12:26:07.677Z,33.23
2022-08-04T12:27:13.950Z,33.25
2022-08-04T12:28:07.579Z,33.27
2022-08-04T12:29:10.284Z,33.31
2022-08-04T12:30:57.347Z,33.36
2022-08-04T12:31:34.304Z,33.40
2022-08-04T12:32:13.858Z,33.44
2022-08-04T12:33:07.530Z,33.48
2022-08-04T12:34:07.549Z,33.51
2022-08-04T12:35:08.573Z,33.53
2022-08-04T12:36:11.264Z,33.54
2022-08-04T12:37:13.992Z,33.53
2022-08-04T12:38:09.885Z,33.52
2022-08-04T12:39:07.513Z,33.49
2022-08-04T12:40:27.719Z,33.45
2022-08-04T12:41:09.417Z,33.40
2022-08-04T12:42:08.617Z,33.35
2022-08-04T12:43:07.424Z,33.31
2022-08-04T12:44:07.452Z,33.24
2022-08-04T12:45:09.126Z,33.17
2022-08-04T12:46:07.336Z,33.12
2022-08-04T12:47:26.517Z,33.10
2022-08-04T12:48:20.733Z,33.05
2022-08-04T12:49:08.837Z,33.00
2022-08-04T12:50:07.563Z,32.95
2022-08-04T12:51:07.704Z,32.92
2022-08-04T12:52:09.565Z,32.89
2022-08-04T12:53:19.550Z,32.88
2022-08-04T12:54:08.761Z,32.86
2022-08-04T12:55:07.343Z,32.84
2022-08-04T12:56:07.235Z,32.87
2022-08-04T12:57:07.445Z,32.91
2022-08-04T12:58:07.233Z,32.93
2022-08-04T12:59:13.039Z,32.97
2022-08-04T13:00:08.699Z,32.98
2022-08-04T13:02:08.487Z,33.00
2022-08-04T13:02:12.020Z,32.99
2022-08-04T13:03:10.147Z,32.97
2022-08-04T13:04:13.484Z,32.99
2022-08-04T13:05:09.406Z,32.99
2022-08-04T13:06:09.054Z,33.00
2022-08-04T13:07:07.188Z,33.01
2022-08-04T13:08:08.069Z,33.01
2022-08-04T13:09:09.298Z,32.99
2022-08-04T13:10:09.615Z,33.00
2022-08-04T13:11:12.514Z,32.95
2022-08-04T13:12:07.281Z,32.91
2022-08-04T13:13:07.028Z,32.86
2022-08-04T13:14:26.200Z,32.82
2022-08-04T13:15:18.268Z,32.75
2022-08-04T13:16:08.607Z,32.72
2022-08-04T13:17:08.792Z,32.68
2022-08-04T13:18:07.003Z,32.69
2022-08-04T13:19:08.801Z,32.72
2022-08-04T13:20:14.135Z,32.74
2022-08-04T13:21:19.377Z,32.75
2022-08-04T13:22:08.487Z,32.77
2022-08-04T13:23:06.994Z,32.76
2022-08-04T13:24:11.014Z,32.77
2022-08-04T13:26:41.390Z,32.74
2022-08-04T13:26:43.479Z,32.71
2022-08-04T13:27:23.233Z,32.68
2022-08-04T13:28:06.903Z,32.62
2022-08-04T13:29:16.776Z,32.59
2022-08-04T13:30:08.843Z,32.56
2022-08-04T13:31:06.832Z,32.53
2022-08-04T13:32:13.764Z,32.53
2022-08-04T13:33:06.803Z,32.52
2022-08-04T13:34:06.817Z,32.53
2022-08-04T13:35:06.925Z,32.56
2022-08-04T13:36:06.837Z,32.59
2022-08-04T13:37:20.934Z,32.60
2022-08-04T13:38:06.795Z,32.61
2022-08-04T13:39:06.775Z,32.60
2022-08-04T13:40:06.834Z,32.58
2022-08-04T13:41:06.717Z,32.51
2022-08-04T13:42:06.734Z,32.48
2022-08-04T13:43:06.714Z,32.46
2022-08-04T13:44:18.033Z,32.47
2022-08-04T13:45:08.216Z,32.49
2022-08-04T13:46:07.635Z,32.50
2022-08-04T13:47:08.474Z,32.54
2022-08-04T13:48:25.272Z,32.60
2022-08-04T13:49:30.948Z,32.65
2022-08-04T13:50:11.197Z,32.70
2022-08-04T13:51:06.698Z,32.76
2022-08-04T13:52:11.479Z,32.81
2022-08-04T13:53:09.191Z,32.87